Mammoth, AZ (85618)

03:05 AM MST on Juli 30, 2015 (GMT -0700)
KAZMAMMO2 | | Change Station
CLOSE
Current Station
Personligvejrstation
Location: Mammoth, AZ
Højde: 2600 ft
Vejrstationer i nærheden

Elev 2600 ft 32.70 °N, 110.65 °W | Updated 47 minutes ago

Let skyet
Let skyet
72.1 ° F
Føles som 72 ° F
N
0.0
Vind Skiftende Vind SSØ
Gusts 0.0 mph

I dag
Høj -- | Lav -- ° F
--% Risiko for nedbør
I går
Høj -- | Lav -- ° F
Precip. -- tommer
5:35 AM 7:22 PM
Tiltagende måne, 98% visible
Tryk 29.94 tommer
Sigtbarhed 10.0 mil
Skyer Klart
Varmeindeks 72 ° F
Dugpunkt 66 ° F
Luftfugtighed 80%
Regnmængde 0.00 tommer
Snedybde Ikke tilgængelig.
UV 0 fra 12
Pollen 3.90 fra 12
Luftkvalitet Ikke tilgængelig.
Flu Activity Ikke tilgængelig.
METAR KDMA 300858Z AUTO 13010KT 10SM CLR 24/17 A3006 RMK AO2 SLP137 T02420173 57009 $

More Conditions Fewer Conditions

Tryk 29.94 tommer
Sigtbarhed 10.0 mil
Skyer Klart
Varmeindeks 72 ° F
Dugpunkt 66 ° F
Luftfugtighed 80%
Regnmængde 0.00 tommer
Snedybde Ikke tilgængelig.
UV 0 fra 12
Pollen 3.90 fra 12
Luftkvalitet Ikke tilgængelig.
Flu Activity Ikke tilgængelig.
METAR KDMA 300858Z AUTO 13010KT 10SM CLR 24/17 A3006 RMK AO2 SLP137 T02420173 57009 $

More Conditions Fewer Conditions

10-Day Weather Forecast

×

Almanac

Astronomi

Jul. 30, 2015 Opgang Nedgang
Faktisktidspunkt
Civilttusmørke
Nautisktusmørke
Astronomisktusmørke
Måne
Synligtlys’ længde
Dagens længde
Tomorrow will be .
, % of the Moon is Illuminated

Ekstremer i dag

State Highs State Lows

Community

WunderPhotos

Upload Photos

1,842,320 Billeder uploaded!

WunderBlogs® & News

Nearby

Luftkvalitet

  Luftkvalitet AQ-indeks Forureningskilder
Not available.

Snedybde

Station Depth Højde

Jordskælvsaktivitet

By Distance Mag. Time & Date
Minimum magnitude displayed is 2.5.

Kystnære vandtemperaturer

Sted Temperatur

Stations

Vejrstationer i nærheden

Stationenssted Temp. Vindeffekt Dugpunkt Luftfugtighed Vind Precip. Elev Opdateret Type